sensor_id;sensor_type;location;lat;lon;timestamp;P1;durP1;ratioP1;P2;durP2;ratioP2
49828;SDS011;35723;51.194;5.112;2023-05-29T00:01:44;15.50;;;5.65;;
49828;SDS011;35723;51.194;5.112;2023-05-29T00:04:10;15.98;;;5.75;;
49828;SDS011;35723;51.194;5.112;2023-05-29T00:06:37;15.00;;;5.60;;
49828;SDS011;35723;51.194;5.112;2023-05-29T00:09:03;17.80;;;5.75;;
49828;SDS011;35723;51.194;5.112;2023-05-29T00:11:29;18.50;;;5.88;;
49828;SDS011;35723;51.194;5.112;2023-05-29T00:13:55;16.65;;;5.80;;
49828;SDS011;35723;51.194;5.112;2023-05-29T00:16:21;18.85;;;6.57;;
49828;SDS011;35723;51.194;5.112;2023-05-29T00:18:48;17.08;;;6.55;;
49828;SDS011;35723;51.194;5.112;2023-05-29T00:21:14;19.50;;;7.15;;
49828;SDS011;35723;51.194;5.112;2023-05-29T00:23:41;23.23;;;7.10;;
49828;SDS011;35723;51.194;5.112;2023-05-29T00:26:07;21.73;;;7.28;;
49828;SDS011;35723;51.194;5.112;2023-05-29T00:28:33;18.85;;;7.65;;
49828;SDS011;35723;51.194;5.112;2023-05-29T00:31:00;19.42;;;7.32;;
49828;SDS011;35723;51.194;5.112;2023-05-29T00:33:26;21.88;;;7.35;;
49828;SDS011;35723;51.194;5.112;2023-05-29T00:35:52;18.45;;;7.65;;
49828;SDS011;35723;51.194;5.112;2023-05-29T00:38:17;18.85;;;7.10;;
49828;SDS011;35723;51.194;5.112;2023-05-29T00:40:43;21.77;;;7.18;;
49828;SDS011;35723;51.194;5.112;2023-05-29T00:43:08;16.50;;;7.20;;
49828;SDS011;35723;51.194;5.112;2023-05-29T00:45:34;20.85;;;7.65;;
49828;SDS011;35723;51.194;5.112;2023-05-29T00:48:04;17.20;;;7.40;;
49828;SDS011;35723;51.194;5.112;2023-05-29T00:50:31;20.98;;;7.78;;
49828;SDS011;35723;51.194;5.112;2023-05-29T00:52:58;24.38;;;7.40;;
49828;SDS011;35723;51.194;5.112;2023-05-29T00:55:26;23.63;;;7.95;;
49828;SDS011;35723;51.194;5.112;2023-05-29T00:57:53;22.45;;;7.97;;
49828;SDS011;35723;51.194;5.112;2023-05-29T01:00:19;21.67;;;7.15;;
49828;SDS011;35723;51.194;5.112;2023-05-29T01:02:45;20.42;;;7.00;;
49828;SDS011;35723;51.194;5.112;2023-05-29T01:05:12;19.27;;;7.18;;
49828;SDS011;35723;51.194;5.112;2023-05-29T01:07:40;20.83;;;6.90;;
49828;SDS011;35723;51.194;5.112;2023-05-29T01:10:07;21.33;;;7.13;;
49828;SDS011;35723;51.194;5.112;2023-05-29T01:20:50;18.15;;;6.28;;
49828;SDS011;35723;51.194;5.112;2023-05-29T01:26:11;25.23;;;6.95;;
49828;SDS011;35723;51.194;5.112;2023-05-29T01:28:48;19.27;;;6.20;;
49828;SDS011;35723;51.194;5.112;2023-05-29T01:31:22;18.50;;;6.03;;
49828;SDS011;35723;51.194;5.112;2023-05-29T01:33:57;21.25;;;5.75;;
49828;SDS011;35723;51.194;5.112;2023-05-29T01:36:24;23.52;;;6.57;;
49828;SDS011;35723;51.194;5.112;2023-05-29T01:38:51;18.80;;;6.00;;
49828;SDS011;35723;51.194;5.112;2023-05-29T01:41:19;22.13;;;5.55;;
49828;SDS011;35723;51.194;5.112;2023-05-29T01:43:46;21.67;;;5.72;;
49828;SDS011;35723;51.194;5.112;2023-05-29T01:46:13;20.92;;;6.00;;
49828;SDS011;35723;51.194;5.112;2023-05-29T01:48:40;23.27;;;6.35;;
49828;SDS011;35723;51.194;5.112;2023-05-29T01:51:06;20.98;;;6.07;;
49828;SDS011;35723;51.194;5.112;2023-05-29T01:53:33;20.33;;;6.07;;
49828;SDS011;35723;51.194;5.112;2023-05-29T01:55:59;17.92;;;5.53;;
49828;SDS011;35723;51.194;5.112;2023-05-29T01:58:26;21.83;;;5.25;;
49828;SDS011;35723;51.194;5.112;2023-05-29T02:00:54;23.65;;;5.25;;
49828;SDS011;35723;51.194;5.112;2023-05-29T02:03:21;20.15;;;4.95;;
49828;SDS011;35723;51.194;5.112;2023-05-29T02:05:47;22.90;;;5.15;;
49828;SDS011;35723;51.194;5.112;2023-05-29T02:08:13;22.42;;;4.97;;
49828;SDS011;35723;51.194;5.112;2023-05-29T02:10:38;22.50;;;5.05;;
49828;SDS011;35723;51.194;5.112;2023-05-29T02:13:04;22.25;;;4.82;;
49828;SDS011;35723;51.194;5.112;2023-05-29T02:15:29;23.63;;;4.90;;
49828;SDS011;35723;51.194;5.112;2023-05-29T02:17:55;19.98;;;4.25;;
49828;SDS011;35723;51.194;5.112;2023-05-29T02:20:22;21.90;;;4.88;;
49828;SDS011;35723;51.194;5.112;2023-05-29T02:22:48;20.02;;;4.40;;
49828;SDS011;35723;51.194;5.112;2023-05-29T02:25:14;22.92;;;4.50;;
49828;SDS011;35723;51.194;5.112;2023-05-29T02:27:40;21.65;;;4.70;;
49828;SDS011;35723;51.194;5.112;2023-05-29T02:30:05;24.52;;;4.63;;
49828;SDS011;35723;51.194;5.112;2023-05-29T02:32:32;23.02;;;4.50;;
49828;SDS011;35723;51.194;5.112;2023-05-29T02:34:58;20.25;;;4.60;;
49828;SDS011;35723;51.194;5.112;2023-05-29T02:37:23;23.17;;;4.60;;
49828;SDS011;35723;51.194;5.112;2023-05-29T02:39:51;21.88;;;4.20;;
49828;SDS011;35723;51.194;5.112;2023-05-29T02:42:16;19.23;;;4.10;;
49828;SDS011;35723;51.194;5.112;2023-05-29T02:44:42;20.52;;;4.25;;
49828;SDS011;35723;51.194;5.112;2023-05-29T02:47:08;24.98;;;4.22;;
49828;SDS011;35723;51.194;5.112;2023-05-29T02:49:34;21.98;;;4.20;;
49828;SDS011;35723;51.194;5.112;2023-05-29T02:51:59;23.58;;;4.53;;
49828;SDS011;35723;51.194;5.112;2023-05-29T02:54:25;21.85;;;4.18;;
49828;SDS011;35723;51.194;5.112;2023-05-29T02:56:51;23.38;;;4.15;;
49828;SDS011;35723;51.194;5.112;2023-05-29T02:59:17;23.95;;;4.30;;
49828;SDS011;35723;51.194;5.112;2023-05-29T03:01:43;19.38;;;3.80;;
49828;SDS011;35723;51.194;5.112;2023-05-29T03:04:11;21.38;;;3.83;;
49828;SDS011;35723;51.194;5.112;2023-05-29T03:06:37;22.17;;;4.55;;
49828;SDS011;35723;51.194;5.112;2023-05-29T03:09:03;21.52;;;4.50;;
49828;SDS011;35723;51.194;5.112;2023-05-29T03:11:30;26.48;;;4.40;;
49828;SDS011;35723;51.194;5.112;2023-05-29T03:13:56;21.13;;;4.28;;
49828;SDS011;35723;51.194;5.112;2023-05-29T03:16:22;22.67;;;4.55;;
49828;SDS011;35723;51.194;5.112;2023-05-29T03:18:47;25.27;;;4.60;;
49828;SDS011;35723;51.194;5.112;2023-05-29T03:21:13;17.48;;;4.22;;
49828;SDS011;35723;51.194;5.112;2023-05-29T03:23:39;19.98;;;4.40;;
49828;SDS011;35723;51.194;5.112;2023-05-29T03:26:04;23.60;;;4.55;;
49828;SDS011;35723;51.194;5.112;2023-05-29T03:28:30;17.83;;;3.95;;
49828;SDS011;35723;51.194;5.112;2023-05-29T03:30:56;19.13;;;3.80;;
49828;SDS011;35723;51.194;5.112;2023-05-29T03:33:22;20.17;;;4.07;;
49828;SDS011;35723;51.194;5.112;2023-05-29T03:35:48;19.58;;;3.80;;
49828;SDS011;35723;51.194;5.112;2023-05-29T03:38:14;20.55;;;4.50;;
49828;SDS011;35723;51.194;5.112;2023-05-29T03:40:39;20.88;;;3.85;;
49828;SDS011;35723;51.194;5.112;2023-05-29T03:43:05;21.38;;;4.20;;
49828;SDS011;35723;51.194;5.112;2023-05-29T03:45:31;21.63;;;4.85;;
49828;SDS011;35723;51.194;5.112;2023-05-29T03:47:56;20.98;;;4.28;;
49828;SDS011;35723;51.194;5.112;2023-05-29T03:50:22;21.15;;;4.10;;
49828;SDS011;35723;51.194;5.112;2023-05-29T03:52:48;20.77;;;4.03;;
49828;SDS011;35723;51.194;5.112;2023-05-29T03:55:14;26.80;;;4.13;;
49828;SDS011;35723;51.194;5.112;2023-05-29T03:57:40;23.60;;;4.30;;
49828;SDS011;35723;51.194;5.112;2023-05-29T04:00:08;24.58;;;4.57;;
49828;SDS011;35723;51.194;5.112;2023-05-29T04:02:37;22.35;;;4.20;;
49828;SDS011;35723;51.194;5.112;2023-05-29T04:05:07;21.60;;;4.28;;
49828;SDS011;35723;51.194;5.112;2023-05-29T04:07:37;24.65;;;4.55;;
49828;SDS011;35723;51.194;5.112;2023-05-29T04:10:03;21.02;;;4.18;;
49828;SDS011;35723;51.194;5.112;2023-05-29T04:12:30;24.02;;;4.43;;
49828;SDS011;35723;51.194;5.112;2023-05-29T04:14:56;28.83;;;4.78;;
49828;SDS011;35723;51.194;5.112;2023-05-29T04:17:22;22.13;;;4.50;;
49828;SDS011;35723;51.194;5.112;2023-05-29T04:19:48;24.05;;;4.10;;
49828;SDS011;35723;51.194;5.112;2023-05-29T04:22:13;20.13;;;4.28;;
49828;SDS011;35723;51.194;5.112;2023-05-29T04:24:39;25.25;;;4.13;;
49828;SDS011;35723;51.194;5.112;2023-05-29T04:27:06;22.60;;;4.68;;
49828;SDS011;35723;51.194;5.112;2023-05-29T04:29:38;21.98;;;3.88;;
49828;SDS011;35723;51.194;5.112;2023-05-29T04:32:07;24.73;;;3.88;;
49828;SDS011;35723;51.194;5.112;2023-05-29T04:34:34;24.02;;;4.38;;
49828;SDS011;35723;51.194;5.112;2023-05-29T04:37:01;25.40;;;4.25;;
49828;SDS011;35723;51.194;5.112;2023-05-29T04:39:28;23.13;;;3.67;;
49828;SDS011;35723;51.194;5.112;2023-05-29T04:41:54;20.67;;;3.97;;
49828;SDS011;35723;51.194;5.112;2023-05-29T04:44:21;21.95;;;4.00;;
49828;SDS011;35723;51.194;5.112;2023-05-29T04:46:47;20.73;;;3.97;;
49828;SDS011;35723;51.194;5.112;2023-05-29T04:49:13;20.80;;;3.65;;
49828;SDS011;35723;51.194;5.112;2023-05-29T04:51:39;22.50;;;4.43;;
49828;SDS011;35723;51.194;5.112;2023-05-29T04:54:07;21.45;;;3.80;;
49828;SDS011;35723;51.194;5.112;2023-05-29T04:56:34;20.73;;;4.05;;
49828;SDS011;35723;51.194;5.112;2023-05-29T04:59:00;24.92;;;4.30;;
49828;SDS011;35723;51.194;5.112;2023-05-29T05:01:26;24.65;;;4.20;;
49828;SDS011;35723;51.194;5.112;2023-05-29T05:03:51;18.58;;;3.60;;
49828;SDS011;35723;51.194;5.112;2023-05-29T05:06:21;24.50;;;3.90;;
49828;SDS011;35723;51.194;5.112;2023-05-29T05:08:47;23.95;;;4.43;;
49828;SDS011;35723;51.194;5.112;2023-05-29T05:11:12;24.75;;;3.67;;
49828;SDS011;35723;51.194;5.112;2023-05-29T05:13:39;18.58;;;3.72;;
49828;SDS011;35723;51.194;5.112;2023-05-29T05:16:05;21.30;;;4.35;;
49828;SDS011;35723;51.194;5.112;2023-05-29T05:18:31;21.83;;;4.00;;
49828;SDS011;35723;51.194;5.112;2023-05-29T05:20:56;24.65;;;4.13;;
49828;SDS011;35723;51.194;5.112;2023-05-29T05:23:22;20.55;;;4.05;;
49828;SDS011;35723;51.194;5.112;2023-05-29T05:25:48;25.70;;;4.47;;
49828;SDS011;35723;51.194;5.112;2023-05-29T05:28:13;25.63;;;4.22;;
49828;SDS011;35723;51.194;5.112;2023-05-29T05:30:39;30.67;;;3.92;;
49828;SDS011;35723;51.194;5.112;2023-05-29T05:33:05;21.45;;;3.80;;
49828;SDS011;35723;51.194;5.112;2023-05-29T05:35:31;29.10;;;4.32;;
49828;SDS011;35723;51.194;5.112;2023-05-29T05:37:56;23.95;;;3.70;;
49828;SDS011;35723;51.194;5.112;2023-05-29T05:40:23;26.55;;;4.15;;
49828;SDS011;35723;51.194;5.112;2023-05-29T05:42:50;22.05;;;3.63;;
49828;SDS011;35723;51.194;5.112;2023-05-29T05:45:15;23.30;;;3.78;;
49828;SDS011;35723;51.194;5.112;2023-05-29T05:47:41;19.25;;;3.80;;
49828;SDS011;35723;51.194;5.112;2023-05-29T05:50:07;21.45;;;3.85;;
49828;SDS011;35723;51.194;5.112;2023-05-29T05:52:33;28.05;;;3.67;;
49828;SDS011;35723;51.194;5.112;2023-05-29T05:54:59;21.33;;;3.83;;
49828;SDS011;35723;51.194;5.112;2023-05-29T05:57:25;22.05;;;3.55;;
49828;SDS011;35723;51.194;5.112;2023-05-29T05:59:51;24.65;;;3.58;;
49828;SDS011;35723;51.194;5.112;2023-05-29T06:02:17;19.25;;;3.33;;
49828;SDS011;35723;51.194;5.112;2023-05-29T06:04:43;22.42;;;3.83;;
49828;SDS011;35723;51.194;5.112;2023-05-29T06:07:08;27.60;;;4.30;;
49828;SDS011;35723;51.194;5.112;2023-05-29T06:09:34;21.30;;;3.50;;
49828;SDS011;35723;51.194;5.112;2023-05-29T06:12:01;18.77;;;3.80;;
49828;SDS011;35723;51.194;5.112;2023-05-29T06:14:27;24.83;;;4.00;;
49828;SDS011;35723;51.194;5.112;2023-05-29T06:16:53;17.45;;;3.13;;
49828;SDS011;35723;51.194;5.112;2023-05-29T06:19:19;21.40;;;3.35;;
49828;SDS011;35723;51.194;5.112;2023-05-29T06:21:45;18.75;;;3.80;;
49828;SDS011;35723;51.194;5.112;2023-05-29T06:24:12;19.17;;;3.20;;
49828;SDS011;35723;51.194;5.112;2023-05-29T06:26:37;20.17;;;3.47;;
49828;SDS011;35723;51.194;5.112;2023-05-29T06:29:04;20.50;;;3.55;;
49828;SDS011;35723;51.194;5.112;2023-05-29T06:31:31;22.17;;;3.33;;
49828;SDS011;35723;51.194;5.112;2023-05-29T06:33:58;16.98;;;3.22;;
49828;SDS011;35723;51.194;5.112;2023-05-29T06:36:23;20.00;;;3.50;;
49828;SDS011;35723;51.194;5.112;2023-05-29T06:38:50;20.50;;;3.85;;
49828;SDS011;35723;51.194;5.112;2023-05-29T06:41:15;20.00;;;3.50;;
49828;SDS011;35723;51.194;5.112;2023-05-29T06:43:42;21.42;;;3.05;;
49828;SDS011;35723;51.194;5.112;2023-05-29T06:46:07;22.75;;;3.75;;
49828;SDS011;35723;51.194;5.112;2023-05-29T06:48:33;21.55;;;3.63;;
49828;SDS011;35723;51.194;5.112;2023-05-29T06:51:00;20.73;;;3.17;;
49828;SDS011;35723;51.194;5.112;2023-05-29T06:53:26;18.25;;;3.60;;
49828;SDS011;35723;51.194;5.112;2023-05-29T06:55:52;19.75;;;3.55;;
49828;SDS011;35723;51.194;5.112;2023-05-29T06:58:18;19.42;;;3.78;;
49828;SDS011;35723;51.194;5.112;2023-05-29T07:00:44;21.58;;;3.72;;
49828;SDS011;35723;51.194;5.112;2023-05-29T07:03:09;22.10;;;3.20;;
49828;SDS011;35723;51.194;5.112;2023-05-29T07:05:35;21.15;;;3.45;;
49828;SDS011;35723;51.194;5.112;2023-05-29T07:08:01;23.45;;;4.45;;
49828;SDS011;35723;51.194;5.112;2023-05-29T07:10:26;21.88;;;3.97;;
49828;SDS011;35723;51.194;5.112;2023-05-29T07:12:52;22.02;;;3.42;;
49828;SDS011;35723;51.194;5.112;2023-05-29T07:15:18;18.67;;;3.67;;
49828;SDS011;35723;51.194;5.112;2023-05-29T07:17:43;18.77;;;3.60;;
49828;SDS011;35723;51.194;5.112;2023-05-29T07:20:09;20.98;;;3.60;;
49828;SDS011;35723;51.194;5.112;2023-05-29T07:22:35;20.38;;;3.38;;
49828;SDS011;35723;51.194;5.112;2023-05-29T07:25:01;21.15;;;3.75;;
49828;SDS011;35723;51.194;5.112;2023-05-29T07:27:28;19.08;;;3.60;;
49828;SDS011;35723;51.194;5.112;2023-05-29T07:29:54;22.02;;;3.65;;
49828;SDS011;35723;51.194;5.112;2023-05-29T07:32:20;17.83;;;3.40;;
49828;SDS011;35723;51.194;5.112;2023-05-29T07:34:46;17.10;;;3.45;;
49828;SDS011;35723;51.194;5.112;2023-05-29T07:37:14;18.33;;;3.50;;
49828;SDS011;35723;51.194;5.112;2023-05-29T07:39:40;20.75;;;3.50;;
49828;SDS011;35723;51.194;5.112;2023-05-29T07:42:07;21.27;;;3.72;;
49828;SDS011;35723;51.194;5.112;2023-05-29T07:44:33;18.42;;;3.70;;
49828;SDS011;35723;51.194;5.112;2023-05-29T07:46:58;20.13;;;3.40;;
49828;SDS011;35723;51.194;5.112;2023-05-29T07:49:24;22.08;;;3.85;;
49828;SDS011;35723;51.194;5.112;2023-05-29T07:51:50;21.55;;;3.88;;
49828;SDS011;35723;51.194;5.112;2023-05-29T07:54:16;22.95;;;3.78;;
49828;SDS011;35723;51.194;5.112;2023-05-29T07:56:45;20.38;;;3.65;;
49828;SDS011;35723;51.194;5.112;2023-05-29T07:59:11;21.75;;;3.78;;
49828;SDS011;35723;51.194;5.112;2023-05-29T08:01:37;20.00;;;3.40;;
49828;SDS011;35723;51.194;5.112;2023-05-29T08:04:04;25.85;;;3.42;;
49828;SDS011;35723;51.194;5.112;2023-05-29T08:06:30;18.45;;;3.33;;
49828;SDS011;35723;51.194;5.112;2023-05-29T08:08:57;24.38;;;3.45;;
49828;SDS011;35723;51.194;5.112;2023-05-29T08:11:23;23.58;;;3.50;;
49828;SDS011;35723;51.194;5.112;2023-05-29T08:13:49;19.88;;;3.50;;
49828;SDS011;35723;51.194;5.112;2023-05-29T08:16:14;17.58;;;2.83;;
49828;SDS011;35723;51.194;5.112;2023-05-29T08:18:42;18.17;;;3.40;;
49828;SDS011;35723;51.194;5.112;2023-05-29T08:21:07;21.42;;;3.10;;
49828;SDS011;35723;51.194;5.112;2023-05-29T08:23:34;18.98;;;3.33;;
49828;SDS011;35723;51.194;5.112;2023-05-29T08:26:00;20.10;;;3.33;;
49828;SDS011;35723;51.194;5.112;2023-05-29T08:28:27;16.42;;;3.22;;
49828;SDS011;35723;51.194;5.112;2023-05-29T08:30:53;17.30;;;3.08;;
49828;SDS011;35723;51.194;5.112;2023-05-29T08:33:19;19.30;;;3.22;;
49828;SDS011;35723;51.194;5.112;2023-05-29T08:35:45;19.15;;;3.78;;
49828;SDS011;35723;51.194;5.112;2023-05-29T08:38:10;18.33;;;3.30;;
49828;SDS011;35723;51.194;5.112;2023-05-29T08:40:36;17.38;;;3.10;;
49828;SDS011;35723;51.194;5.112;2023-05-29T08:43:04;18.15;;;3.17;;
49828;SDS011;35723;51.194;5.112;2023-05-29T08:45:44;18.40;;;3.10;;
49828;SDS011;35723;51.194;5.112;2023-05-29T08:48:11;17.20;;;3.22;;
49828;SDS011;35723;51.194;5.112;2023-05-29T08:50:44;18.02;;;3.35;;
49828;SDS011;35723;51.194;5.112;2023-05-29T08:53:16;15.65;;;2.92;;
49828;SDS011;35723;51.194;5.112;2023-05-29T08:55:43;19.85;;;3.67;;
49828;SDS011;35723;51.194;5.112;2023-05-29T08:58:12;14.88;;;3.10;;
49828;SDS011;35723;51.194;5.112;2023-05-29T09:00:38;21.33;;;3.20;;
49828;SDS011;35723;51.194;5.112;2023-05-29T09:03:05;17.98;;;3.30;;
49828;SDS011;35723;51.194;5.112;2023-05-29T09:05:32;17.35;;;3.10;;
49828;SDS011;35723;51.194;5.112;2023-05-29T09:07:58;20.58;;;3.15;;
49828;SDS011;35723;51.194;5.112;2023-05-29T09:10:25;17.17;;;3.22;;
49828;SDS011;35723;51.194;5.112;2023-05-29T09:12:51;17.92;;;2.97;;
49828;SDS011;35723;51.194;5.112;2023-05-29T09:15:17;18.55;;;3.38;;
49828;SDS011;35723;51.194;5.112;2023-05-29T09:17:53;17.85;;;3.42;;
49828;SDS011;35723;51.194;5.112;2023-05-29T09:20:23;14.90;;;2.92;;
49828;SDS011;35723;51.194;5.112;2023-05-29T09:23:02;17.88;;;3.42;;
49828;SDS011;35723;51.194;5.112;2023-05-29T09:25:30;15.50;;;2.95;;
49828;SDS011;35723;51.194;5.112;2023-05-29T09:28:04;20.17;;;3.58;;
49828;SDS011;35723;51.194;5.112;2023-05-29T09:33:09;17.30;;;3.28;;
49828;SDS011;35723;51.194;5.112;2023-05-29T09:35:39;14.93;;;2.92;;
49828;SDS011;35723;51.194;5.112;2023-05-29T09:38:05;21.17;;;3.40;;
49828;SDS011;35723;51.194;5.112;2023-05-29T09:40:32;16.02;;;2.95;;
49828;SDS011;35723;51.194;5.112;2023-05-29T09:43:11;15.88;;;3.10;;
49828;SDS011;35723;51.194;5.112;2023-05-29T09:45:48;18.27;;;3.15;;
49828;SDS011;35723;51.194;5.112;2023-05-29T09:48:15;19.00;;;3.17;;
49828;SDS011;35723;51.194;5.112;2023-05-29T09:50:48;17.42;;;3.15;;
49828;SDS011;35723;51.194;5.112;2023-05-29T09:53:24;19.95;;;3.33;;
49828;SDS011;35723;51.194;5.112;2023-05-29T09:55:50;13.43;;;2.75;;
49828;SDS011;35723;51.194;5.112;2023-05-29T09:58:18;15.50;;;2.85;;
49828;SDS011;35723;51.194;5.112;2023-05-29T10:00:44;19.15;;;3.72;;
49828;SDS011;35723;51.194;5.112;2023-05-29T10:03:11;14.25;;;3.03;;
49828;SDS011;35723;51.194;5.112;2023-05-29T10:05:39;16.33;;;2.75;;
49828;SDS011;35723;51.194;5.112;2023-05-29T10:08:11;15.13;;;3.10;;
49828;SDS011;35723;51.194;5.112;2023-05-29T10:10:38;19.83;;;3.57;;
49828;SDS011;35723;51.194;5.112;2023-05-29T10:13:13;17.10;;;3.25;;
49828;SDS011;35723;51.194;5.112;2023-05-29T10:15:41;13.43;;;3.40;;
49828;SDS011;35723;51.194;5.112;2023-05-29T10:18:13;16.52;;;2.90;;
49828;SDS011;35723;51.194;5.112;2023-05-29T10:20:46;18.27;;;3.13;;
49828;SDS011;35723;51.194;5.112;2023-05-29T10:23:16;14.30;;;3.10;;
49828;SDS011;35723;51.194;5.112;2023-05-29T10:25:47;12.88;;;2.67;;
49828;SDS011;35723;51.194;5.112;2023-05-29T10:28:18;16.70;;;3.47;;
49828;SDS011;35723;51.194;5.112;2023-05-29T10:30:53;18.83;;;3.05;;
49828;SDS011;35723;51.194;5.112;2023-05-29T10:33:40;16.25;;;3.17;;
49828;SDS011;35723;51.194;5.112;2023-05-29T10:36:25;15.70;;;3.20;;
49828;SDS011;35723;51.194;5.112;2023-05-29T10:38:55;17.17;;;3.30;;
49828;SDS011;35723;51.194;5.112;2023-05-29T10:43:56;17.92;;;2.97;;
49828;SDS011;35723;51.194;5.112;2023-05-29T10:49:15;15.02;;;3.30;;
49828;SDS011;35723;51.194;5.112;2023-05-29T10:51:41;16.05;;;3.33;;
49828;SDS011;35723;51.194;5.112;2023-05-29T10:54:07;16.25;;;3.45;;
49828;SDS011;35723;51.194;5.112;2023-05-29T10:56:33;16.23;;;3.47;;
49828;SDS011;35723;51.194;5.112;2023-05-29T10:58:59;18.85;;;3.42;;
49828;SDS011;35723;51.194;5.112;2023-05-29T11:01:27;18.70;;;3.15;;
49828;SDS011;35723;51.194;5.112;2023-05-29T11:03:54;16.50;;;3.05;;
49828;SDS011;35723;51.194;5.112;2023-05-29T11:06:42;16.13;;;3.15;;
49828;SDS011;35723;51.194;5.112;2023-05-29T11:15:04;16.00;;;3.33;;
49828;SDS011;35723;51.194;5.112;2023-05-29T11:20:04;17.30;;;3.30;;
49828;SDS011;35723;51.194;5.112;2023-05-29T11:23:18;10.90;;;3.03;;
49828;SDS011;35723;51.194;5.112;2023-05-29T11:25:25;11.02;;;2.55;;
49828;SDS011;35723;51.194;5.112;2023-05-29T11:27:52;13.93;;;2.88;;
49828;SDS011;35723;51.194;5.112;2023-05-29T11:30:18;12.65;;;2.85;;
49828;SDS011;35723;51.194;5.112;2023-05-29T11:32:44;16.70;;;3.17;;
49828;SDS011;35723;51.194;5.112;2023-05-29T11:35:12;17.52;;;3.13;;
49828;SDS011;35723;51.194;5.112;2023-05-29T11:37:38;16.27;;;2.95;;
49828;SDS011;35723;51.194;5.112;2023-05-29T11:40:07;15.00;;;3.15;;
49828;SDS011;35723;51.194;5.112;2023-05-29T11:42:34;16.20;;;3.60;;
49828;SDS011;35723;51.194;5.112;2023-05-29T11:47:54;16.45;;;3.22;;
49828;SDS011;35723;51.194;5.112;2023-05-29T11:50:24;17.45;;;3.05;;
49828;SDS011;35723;51.194;5.112;2023-05-29T11:52:51;13.73;;;3.05;;
49828;SDS011;35723;51.194;5.112;2023-05-29T11:55:17;18.38;;;3.13;;
49828;SDS011;35723;51.194;5.112;2023-05-29T11:57:47;15.60;;;3.22;;
49828;SDS011;35723;51.194;5.112;2023-05-29T12:00:17;20.63;;;3.03;;
49828;SDS011;35723;51.194;5.112;2023-05-29T12:02:44;18.55;;;3.00;;
49828;SDS011;35723;51.194;5.112;2023-05-29T12:05:15;16.95;;;2.95;;
49828;SDS011;35723;51.194;5.112;2023-05-29T12:08:01;15.15;;;3.20;;
49828;SDS011;35723;51.194;5.112;2023-05-29T12:10:27;13.05;;;2.85;;
49828;SDS011;35723;51.194;5.112;2023-05-29T12:12:54;15.57;;;3.20;;
49828;SDS011;35723;51.194;5.112;2023-05-29T12:15:21;17.45;;;3.10;;
49828;SDS011;35723;51.194;5.112;2023-05-29T12:17:48;12.25;;;2.83;;
49828;SDS011;35723;51.194;5.112;2023-05-29T12:20:15;15.35;;;3.20;;
49828;SDS011;35723;51.194;5.112;2023-05-29T12:22:42;17.90;;;3.05;;
49828;SDS011;35723;51.194;5.112;2023-05-29T12:25:09;13.07;;;3.20;;
49828;SDS011;35723;51.194;5.112;2023-05-29T12:27:39;13.48;;;2.92;;
49828;SDS011;35723;51.194;5.112;2023-05-29T12:30:19;18.08;;;3.30;;
49828;SDS011;35723;51.194;5.112;2023-05-29T12:32:49;13.48;;;3.20;;
49828;SDS011;35723;51.194;5.112;2023-05-29T12:35:23;16.65;;;3.70;;
49828;SDS011;35723;51.194;5.112;2023-05-29T12:38:01;11.27;;;2.90;;
49828;SDS011;35723;51.194;5.112;2023-05-29T12:40:30;17.25;;;3.30;;
49828;SDS011;35723;51.194;5.112;2023-05-29T12:42:59;15.82;;;3.30;;
49828;SDS011;35723;51.194;5.112;2023-05-29T12:45:31;11.43;;;3.20;;
49828;SDS011;35723;51.194;5.112;2023-05-29T12:48:02;16.38;;;3.08;;
49828;SDS011;35723;51.194;5.112;2023-05-29T12:50:31;16.25;;;3.10;;
49828;SDS011;35723;51.194;5.112;2023-05-29T12:52:58;12.55;;;2.97;;
49828;SDS011;35723;51.194;5.112;2023-05-29T12:55:26;15.77;;;3.08;;
49828;SDS011;35723;51.194;5.112;2023-05-29T12:57:53;10.82;;;2.90;;
49828;SDS011;35723;51.194;5.112;2023-05-29T13:00:19;12.70;;;3.20;;
49828;SDS011;35723;51.194;5.112;2023-05-29T13:02:48;14.65;;;3.00;;
49828;SDS011;35723;51.194;5.112;2023-05-29T13:05:15;15.07;;;3.28;;
49828;SDS011;35723;51.194;5.112;2023-05-29T13:07:44;9.95;;;3.10;;
49828;SDS011;35723;51.194;5.112;2023-05-29T13:10:14;17.83;;;3.40;;
49828;SDS011;35723;51.194;5.112;2023-05-29T13:12:40;12.23;;;2.75;;
49828;SDS011;35723;51.194;5.112;2023-05-29T13:15:07;15.05;;;3.00;;
49828;SDS011;35723;51.194;5.112;2023-05-29T13:17:33;12.10;;;3.05;;
49828;SDS011;35723;51.194;5.112;2023-05-29T13:19:59;12.60;;;3.00;;
49828;SDS011;35723;51.194;5.112;2023-05-29T13:22:25;17.20;;;3.10;;
49828;SDS011;35723;51.194;5.112;2023-05-29T13:24:56;12.52;;;3.25;;
49828;SDS011;35723;51.194;5.112;2023-05-29T13:27:23;18.80;;;3.25;;
49828;SDS011;35723;51.194;5.112;2023-05-29T13:29:49;13.13;;;3.15;;
49828;SDS011;35723;51.194;5.112;2023-05-29T13:32:15;16.88;;;3.13;;
49828;SDS011;35723;51.194;5.112;2023-05-29T13:34:40;15.02;;;3.40;;
49828;SDS011;35723;51.194;5.112;2023-05-29T13:37:06;16.90;;;3.13;;
49828;SDS011;35723;51.194;5.112;2023-05-29T13:39:32;17.65;;;3.63;;
49828;SDS011;35723;51.194;5.112;2023-05-29T13:41:58;15.75;;;3.25;;
49828;SDS011;35723;51.194;5.112;2023-05-29T13:44:23;16.17;;;3.15;;
49828;SDS011;35723;51.194;5.112;2023-05-29T13:46:49;13.70;;;3.20;;
49828;SDS011;35723;51.194;5.112;2023-05-29T13:49:15;14.27;;;3.22;;
49828;SDS011;35723;51.194;5.112;2023-05-29T13:51:41;11.93;;;3.05;;
49828;SDS011;35723;51.194;5.112;2023-05-29T13:54:07;15.88;;;3.30;;
49828;SDS011;35723;51.194;5.112;2023-05-29T13:56:33;11.68;;;3.20;;
49828;SDS011;35723;51.194;5.112;2023-05-29T13:58:58;17.67;;;3.00;;
49828;SDS011;35723;51.194;5.112;2023-05-29T14:01:30;13.73;;;3.50;;
49828;SDS011;35723;51.194;5.112;2023-05-29T14:03:56;11.98;;;3.03;;
49828;SDS011;35723;51.194;5.112;2023-05-29T14:06:21;18.08;;;3.15;;
49828;SDS011;35723;51.194;5.112;2023-05-29T14:08:47;12.32;;;2.95;;
49828;SDS011;35723;51.194;5.112;2023-05-29T14:11:13;11.18;;;3.33;;
49828;SDS011;35723;51.194;5.112;2023-05-29T14:13:38;14.15;;;2.92;;
49828;SDS011;35723;51.194;5.112;2023-05-29T14:16:04;11.40;;;2.60;;
49828;SDS011;35723;51.194;5.112;2023-05-29T14:18:30;16.98;;;3.08;;
49828;SDS011;35723;51.194;5.112;2023-05-29T14:20:55;11.68;;;2.70;;
49828;SDS011;35723;51.194;5.112;2023-05-29T14:23:21;12.95;;;3.10;;
49828;SDS011;35723;51.194;5.112;2023-05-29T14:25:47;14.55;;;3.00;;
49828;SDS011;35723;51.194;5.112;2023-05-29T14:28:12;12.90;;;2.95;;
49828;SDS011;35723;51.194;5.112;2023-05-29T14:30:38;10.93;;;2.95;;
49828;SDS011;35723;51.194;5.112;2023-05-29T14:33:04;10.73;;;3.00;;
49828;SDS011;35723;51.194;5.112;2023-05-29T14:35:30;12.25;;;2.95;;
49828;SDS011;35723;51.194;5.112;2023-05-29T14:37:56;12.43;;;3.22;;
49828;SDS011;35723;51.194;5.112;2023-05-29T14:40:22;14.63;;;3.10;;
49828;SDS011;35723;51.194;5.112;2023-05-29T14:42:47;15.88;;;2.85;;
49828;SDS011;35723;51.194;5.112;2023-05-29T14:45:13;17.75;;;3.00;;
49828;SDS011;35723;51.194;5.112;2023-05-29T14:47:40;13.90;;;2.80;;
49828;SDS011;35723;51.194;5.112;2023-05-29T14:50:06;14.07;;;2.97;;
49828;SDS011;35723;51.194;5.112;2023-05-29T14:52:32;14.52;;;2.88;;
49828;SDS011;35723;51.194;5.112;2023-05-29T14:55:00;11.63;;;2.90;;
49828;SDS011;35723;51.194;5.112;2023-05-29T14:57:26;13.45;;;2.92;;
49828;SDS011;35723;51.194;5.112;2023-05-29T14:59:52;13.00;;;2.92;;
49828;SDS011;35723;51.194;5.112;2023-05-29T15:02:18;15.43;;;3.00;;
49828;SDS011;35723;51.194;5.112;2023-05-29T15:04:43;16.05;;;3.25;;